createdAt,value
2023-03-26T00:02:52.382Z,65.76
2023-03-26T00:07:54.690Z,66.27
2023-03-26T00:12:57.360Z,65.86
2023-03-26T00:18:03.398Z,66.06
2023-03-26T00:23:11.058Z,66.26
2023-03-26T00:28:18.184Z,66.35
2023-03-26T00:33:22.852Z,66.85
2023-03-26T00:38:27.992Z,66.89
2023-03-26T00:43:34.017Z,67.24
2023-03-26T00:48:45.422Z,67.46
2023-03-26T00:53:51.755Z,67.14
2023-03-26T00:58:59.335Z,67.83
2023-03-26T01:04:32.198Z,68.05
2023-03-26T01:09:43.677Z,68.20
2023-03-26T01:14:47.341Z,68.59
2023-03-26T01:20:14.141Z,68.58
2023-03-26T01:25:20.535Z,69.14
2023-03-26T01:30:34.225Z,69.20
2023-03-26T01:35:56.948Z,69.30
2023-03-26T01:41:09.915Z,69.61
2023-03-26T01:46:13.483Z,69.94
2023-03-26T01:51:30.220Z,70.03
2023-03-26T01:56:39.186Z,70.07
2023-03-26T02:02:04.943Z,70.83
2023-03-26T02:07:23.828Z,71.09
2023-03-26T02:12:26.616Z,71.71
2023-03-26T02:17:30.274Z,71.87
2023-03-26T02:22:32.420Z,71.77
2023-03-26T02:27:34.591Z,71.93
2023-03-26T02:32:41.626Z,73.17
2023-03-26T02:37:47.078Z,73.75
2023-03-26T02:42:52.237Z,73.77
2023-03-26T02:47:57.974Z,73.96
2023-03-26T02:53:19.219Z,74.00
2023-03-26T02:58:27.344Z,74.06
2023-03-26T03:03:30.228Z,73.91
2023-03-26T03:08:32.272Z,73.97
2023-03-26T03:13:48.041Z,74.35
2023-03-26T03:18:58.117Z,74.77
2023-03-26T03:24:19.940Z,74.72
2023-03-26T03:29:25.199Z,74.82
2023-03-26T03:34:27.944Z,74.79
2023-03-26T03:39:30.242Z,74.66
2023-03-26T03:44:32.410Z,75.00
2023-03-26T03:49:38.269Z,75.08
2023-03-26T03:54:46.764Z,75.38
2023-03-26T04:00:10.228Z,75.42
2023-03-26T04:05:18.212Z,75.74
2023-03-26T04:10:23.964Z,76.31
2023-03-26T04:15:46.357Z,76.25
2023-03-26T04:20:50.146Z,76.12
2023-03-26T04:26:04.335Z,76.92
2023-03-26T04:31:30.766Z,77.02
2023-03-26T04:36:35.687Z,77.74
2023-03-26T04:41:38.763Z,78.04
2023-03-26T04:46:50.051Z,78.23
2023-03-26T04:51:59.238Z,78.52
2023-03-26T04:57:23.969Z,78.75
2023-03-26T05:02:32.840Z,79.50
2023-03-26T05:07:35.858Z,80.75
2023-03-26T05:12:38.395Z,81.18
2023-03-26T05:17:46.710Z,82.02
2023-03-26T05:22:57.352Z,82.28
2023-03-26T05:28:03.402Z,82.29
2023-03-26T05:33:16.552Z,82.84
2023-03-26T05:38:25.740Z,83.31
2023-03-26T05:43:28.701Z,83.50
2023-03-26T05:48:41.483Z,84.25
2023-03-26T05:53:43.985Z,84.40
2023-03-26T05:59:04.321Z,84.55
2023-03-26T06:04:28.769Z,84.44
2023-03-26T06:09:58.741Z,84.51
2023-03-26T06:15:00.891Z,84.95
2023-03-26T06:20:17.615Z,85.05
2023-03-26T06:25:21.958Z,85.35
2023-03-26T06:30:46.803Z,85.28
2023-03-26T06:36:09.428Z,85.87
2023-03-26T06:41:12.135Z,86.57
2023-03-26T06:46:38.759Z,86.69
2023-03-26T06:51:59.723Z,86.02
2023-03-26T06:57:15.966Z,85.86
2023-03-26T07:02:18.104Z,85.93
2023-03-26T07:07:46.207Z,85.34
2023-03-26T07:13:07.958Z,84.49
2023-03-26T07:18:38.780Z,83.77
2023-03-26T07:23:43.947Z,84.03
2023-03-26T07:29:46.202Z,84.02
2023-03-26T07:35:42.293Z,84.27
2023-03-26T07:42:02.660Z,84.10
2023-03-26T07:47:34.654Z,83.29
2023-03-26T07:52:57.299Z,82.27
2023-03-26T07:59:07.782Z,81.61
2023-03-26T08:04:48.688Z,79.18
2023-03-26T08:10:22.576Z,76.72
2023-03-26T08:16:20.076Z,71.98
2023-03-26T08:21:45.780Z,70.44
2023-03-26T08:27:02.782Z,69.38
2023-03-26T08:32:05.860Z,68.25
2023-03-26T08:37:10.057Z,63.24
2023-03-26T08:42:27.005Z,61.65
2023-03-26T08:47:29.173Z,58.72
2023-03-26T08:52:42.531Z,58.54
2023-03-26T08:57:59.370Z,55.99
2023-03-26T09:03:19.897Z,54.34
2023-03-26T09:08:54.158Z,54.36
2023-03-26T09:14:16.888Z,50.01
2023-03-26T09:20:16.224Z,46.48
2023-03-26T09:25:35.333Z,44.56
2023-03-26T09:30:43.106Z,44.10
2023-03-26T09:35:54.128Z,43.49
2023-03-26T09:41:06.453Z,41.70
2023-03-26T09:46:34.509Z,40.12
2023-03-26T09:51:36.489Z,36.86
2023-03-26T09:57:08.387Z,35.34
2023-03-26T10:02:46.107Z,33.93
2023-03-26T10:07:57.496Z,32.70
2023-03-26T10:13:14.477Z,32.80
2023-03-26T10:18:42.413Z,31.44
2023-03-26T10:24:23.500Z,30.64
2023-03-26T10:29:48.853Z,29.17
2023-03-26T10:35:13.584Z,28.58
2023-03-26T10:40:56.971Z,28.18
2023-03-26T10:45:59.027Z,27.73
2023-03-26T10:51:20.882Z,28.45
2023-03-26T10:56:52.454Z,26.48
2023-03-26T11:01:54.393Z,25.81
2023-03-26T11:07:20.971Z,25.94
2023-03-26T11:12:46.724Z,24.82
2023-03-26T11:17:59.401Z,24.10
2023-03-26T11:23:13.381Z,23.90
2023-03-26T11:28:41.491Z,22.80
2023-03-26T11:34:09.808Z,22.41
2023-03-26T11:39:15.838Z,22.43
2023-03-26T11:44:21.983Z,22.73
2023-03-26T11:49:24.222Z,22.36
2023-03-26T11:54:26.763Z,23.96
2023-03-26T11:59:30.316Z,23.82
2023-03-26T12:04:38.393Z,23.67
2023-03-26T12:09:54.002Z,24.80
2023-03-26T12:14:57.394Z,23.21
2023-03-26T12:20:01.524Z,21.85
2023-03-26T12:25:16.544Z,23.05
2023-03-26T12:30:31.538Z,21.67
2023-03-26T12:35:35.699Z,21.18
2023-03-26T12:40:39.940Z,21.23
2023-03-26T12:45:43.645Z,20.78
2023-03-26T12:50:51.348Z,21.92
2023-03-26T12:56:36.895Z,21.44
2023-03-26T13:01:58.523Z,21.72
2023-03-26T13:07:16.552Z,21.51
2023-03-26T13:12:25.909Z,21.71
2023-03-26T13:18:00.245Z,20.16
2023-03-26T13:23:40.968Z,20.35
2023-03-26T13:28:57.584Z,21.65
2023-03-26T13:34:41.424Z,21.31
2023-03-26T13:39:57.251Z,21.16
2023-03-26T13:45:38.611Z,20.41
2023-03-26T13:50:43.441Z,20.39
2023-03-26T13:55:49.331Z,19.78
2023-03-26T14:01:12.646Z,20.67
2023-03-26T14:06:20.950Z,19.75
2023-03-26T14:11:50.163Z,18.79
2023-03-26T14:16:58.954Z,18.51
2023-03-26T14:22:24.402Z,20.42
2023-03-26T14:27:49.916Z,19.82
2023-03-26T14:33:11.366Z,19.07
2023-03-26T14:38:23.253Z,18.67
2023-03-26T14:43:50.058Z,19.80
2023-03-26T14:49:33.536Z,18.35
2023-03-26T14:54:40.963Z,20.46
2023-03-26T15:00:12.455Z,20.88
2023-03-26T15:05:48.498Z,21.38
2023-03-26T15:11:25.866Z,20.46
2023-03-26T15:17:01.534Z,19.44
2023-03-26T15:22:34.601Z,18.81
2023-03-26T15:27:57.543Z,18.12
2023-03-26T15:33:40.833Z,19.50
2023-03-26T15:39:03.400Z,19.41
2023-03-26T15:44:22.943Z,18.63
2023-03-26T15:49:40.827Z,19.27
2023-03-26T15:55:01.959Z,19.68
2023-03-26T16:00:22.637Z,20.02
2023-03-26T16:05:48.775Z,20.29
2023-03-26T16:10:51.792Z,18.48
2023-03-26T16:16:02.912Z,19.87
2023-03-26T16:21:30.860Z,20.43
2023-03-26T16:26:43.131Z,20.42
2023-03-26T16:32:14.221Z,20.69
2023-03-26T16:38:04.898Z,21.00
2023-03-26T16:43:31.172Z,20.67
2023-03-26T16:48:41.675Z,21.40
2023-03-26T16:54:19.080Z,22.14
2023-03-26T16:59:46.493Z,22.04
2023-03-26T17:05:44.189Z,22.90
2023-03-26T17:10:57.269Z,23.12
2023-03-26T17:16:23.951Z,22.72
2023-03-26T17:21:46.683Z,23.80
2023-03-26T17:26:55.208Z,24.21
2023-03-26T17:32:11.534Z,24.35
2023-03-26T17:37:27.634Z,25.09
2023-03-26T17:42:35.513Z,25.04
2023-03-26T17:47:56.532Z,25.20
2023-03-26T17:53:34.661Z,26.08
2023-03-26T17:58:50.658Z,25.37
2023-03-26T18:03:59.377Z,25.25
2023-03-26T18:09:22.032Z,26.21
2023-03-26T18:14:40.685Z,26.39
2023-03-26T18:20:07.389Z,26.31
2023-03-26T18:25:32.383Z,27.00
2023-03-26T18:30:49.098Z,27.52
2023-03-26T18:35:56.486Z,28.06
2023-03-26T18:40:59.118Z,28.23
2023-03-26T18:46:01.577Z,28.04
2023-03-26T18:51:06.180Z,29.04
2023-03-26T18:56:34.027Z,28.78
2023-03-26T19:01:38.494Z,28.80
2023-03-26T19:06:40.735Z,29.29
2023-03-26T19:11:44.359Z,29.58
2023-03-26T19:16:51.044Z,30.14
2023-03-26T19:21:53.258Z,30.24
2023-03-26T19:26:55.873Z,30.91
2023-03-26T19:32:18.154Z,31.24
2023-03-26T19:37:23.224Z,31.60
2023-03-26T19:42:43.081Z,31.83
2023-03-26T19:47:52.227Z,32.43
2023-03-26T19:53:32.727Z,33.53
2023-03-26T19:58:35.785Z,33.65
2023-03-26T20:03:43.022Z,33.85
2023-03-26T20:08:45.312Z,34.38
2023-03-26T20:13:48.228Z,34.05
2023-03-26T20:18:50.923Z,34.96
2023-03-26T20:23:56.129Z,34.96
2023-03-26T20:28:59.032Z,35.60
2023-03-26T20:34:01.200Z,35.86
2023-03-26T20:39:08.205Z,36.22
2023-03-26T20:44:18.603Z,36.42
2023-03-26T20:49:22.449Z,37.15
2023-03-26T20:54:26.145Z,36.90
2023-03-26T20:59:30.240Z,37.09
2023-03-26T21:04:32.445Z,37.34
2023-03-26T21:09:34.836Z,37.21
2023-03-26T21:14:44.535Z,37.68
2023-03-26T21:19:54.016Z,37.90
2023-03-26T21:25:11.825Z,38.13
2023-03-26T21:30:14.909Z,38.41
2023-03-26T21:35:19.741Z,38.33
2023-03-26T21:40:22.142Z,38.53
2023-03-26T21:45:24.547Z,38.45
2023-03-26T21:50:26.861Z,38.84
2023-03-26T21:55:29.122Z,38.75
2023-03-26T22:00:43.428Z,39.15
2023-03-26T22:05:54.714Z,39.44
2023-03-26T22:10:57.363Z,39.53
2023-03-26T22:15:59.777Z,39.71
2023-03-26T22:21:01.887Z,39.83
2023-03-26T22:26:05.163Z,40.47
2023-03-26T22:31:09.094Z,40.47
2023-03-26T22:36:22.701Z,40.53
2023-03-26T22:41:26.290Z,40.83
2023-03-26T22:46:29.036Z,40.87
2023-03-26T22:51:31.176Z,41.20
2023-03-26T22:56:33.219Z,41.30
2023-03-26T23:01:36.597Z,41.55
2023-03-26T23:06:38.674Z,41.88
2023-03-26T23:11:40.642Z,41.93
2023-03-26T23:16:46.334Z,42.27
2023-03-26T23:21:53.281Z,42.53
2023-03-26T23:26:57.738Z,42.64
2023-03-26T23:32:02.427Z,42.58
2023-03-26T23:37:06.627Z,42.89
2023-03-26T23:42:28.494Z,43.16
2023-03-26T23:47:35.353Z,43.45
2023-03-26T23:52:39.974Z,43.72
2023-03-26T23:57:44.370Z,43.72
